createdAt,value
2019-02-26T00:00:10.257Z,7.90
2019-02-26T00:02:56.346Z,11.13
2019-02-26T00:05:28.438Z,8.60
2019-02-26T00:07:57.946Z,10.07
2019-02-26T00:10:28.998Z,9.40
2019-02-26T00:12:59.168Z,10.97
2019-02-26T00:15:31.318Z,13.83
2019-02-26T00:18:01.936Z,13.77
2019-02-26T00:20:33.632Z,9.20
2019-02-26T00:23:03.931Z,10.50
2019-02-26T00:25:33.217Z,10.70
2019-02-26T00:28:03.696Z,11.53
2019-02-26T00:30:33.851Z,9.33
2019-02-26T00:33:05.239Z,10.60
2019-02-26T00:35:34.766Z,11.10
2019-02-26T00:38:04.252Z,10.73
2019-02-26T00:40:34.911Z,10.47
2019-02-26T00:43:06.145Z,11.53
2019-02-26T00:45:38.522Z,12.17
2019-02-26T00:48:06.312Z,15.23
2019-02-26T00:50:37.319Z,14.23
2019-02-26T00:53:06.380Z,13.33
2019-02-26T00:55:37.353Z,9.27
2019-02-26T00:58:08.421Z,11.27
2019-02-26T01:00:37.424Z,11.73
2019-02-26T01:03:08.609Z,10.03
2019-02-26T01:05:39.184Z,9.23
2019-02-26T01:08:12.755Z,9.33
2019-02-26T01:10:41.505Z,10.53
2019-02-26T01:13:10.986Z,12.77
2019-02-26T01:15:40.455Z,10.23
2019-02-26T01:18:11.792Z,11.30
2019-02-26T01:20:41.692Z,11.67
2019-02-26T01:23:11.269Z,10.43
2019-02-26T01:25:40.808Z,10.83
2019-02-26T01:28:14.143Z,10.60
2019-02-26T01:30:44.817Z,10.30
2019-02-26T01:33:13.981Z,13.33
2019-02-26T01:35:43.237Z,17.53
2019-02-26T01:38:14.388Z,17.00
2019-02-26T01:40:45.943Z,12.03
2019-02-26T01:43:14.832Z,22.23
2019-02-26T01:45:55.399Z,21.83
2019-02-26T01:48:24.741Z,14.80
2019-02-26T01:50:54.453Z,14.87
2019-02-26T01:53:27.140Z,14.73
2019-02-26T01:55:56.005Z,13.07
2019-02-26T01:58:25.171Z,13.33
2019-02-26T02:00:55.576Z,9.33
2019-02-26T02:03:26.113Z,14.53
2019-02-26T02:05:56.100Z,11.07
2019-02-26T02:08:25.271Z,11.10
2019-02-26T02:10:58.865Z,11.97
2019-02-26T02:13:28.336Z,11.47
2019-02-26T02:15:57.666Z,12.87
2019-02-26T02:18:29.338Z,12.47
2019-02-26T02:20:58.245Z,14.00
2019-02-26T02:23:28.038Z,11.60
2019-02-26T02:26:02.097Z,10.23
2019-02-26T02:28:31.047Z,10.87
2019-02-26T02:31:00.324Z,10.50
2019-02-26T02:33:30.095Z,11.43
2019-02-26T02:36:00.420Z,11.00
2019-02-26T02:38:29.590Z,14.53
2019-02-26T02:40:58.791Z,10.03
2019-02-26T02:43:27.956Z,13.10
2019-02-26T02:45:59.051Z,12.20
2019-02-26T02:48:28.192Z,12.80
2019-02-26T02:50:59.510Z,11.83
2019-02-26T02:53:30.222Z,13.77
2019-02-26T02:55:59.607Z,13.30
2019-02-26T02:58:28.800Z,10.40
2019-02-26T03:01:00.331Z,11.03
2019-02-26T03:03:29.051Z,11.27
2019-02-26T03:05:58.945Z,13.77
2019-02-26T03:08:29.387Z,11.30
2019-02-26T03:10:58.888Z,12.37
2019-02-26T03:13:28.192Z,11.63
2019-02-26T03:15:59.285Z,10.63
2019-02-26T03:18:28.504Z,11.27
2019-02-26T03:21:00.088Z,9.73
2019-02-26T03:23:28.850Z,10.70
2019-02-26T03:25:58.044Z,10.73
2019-02-26T03:28:27.364Z,10.70
2019-02-26T03:30:56.737Z,9.27
2019-02-26T03:33:25.977Z,11.83
2019-02-26T03:35:55.252Z,12.50
2019-02-26T03:38:26.858Z,11.90
2019-02-26T03:40:58.913Z,10.73
2019-02-26T03:43:28.681Z,12.70
2019-02-26T03:45:58.016Z,13.23
2019-02-26T03:48:27.212Z,12.00
2019-02-26T03:51:00.594Z,12.77
2019-02-26T03:53:30.425Z,15.53
2019-02-26T03:56:01.950Z,14.27
2019-02-26T03:58:29.709Z,12.33
2019-02-26T04:01:01.679Z,12.87
2019-02-26T04:03:31.993Z,10.83
2019-02-26T04:06:02.920Z,12.13
2019-02-26T04:08:31.934Z,11.47
2019-02-26T04:11:01.968Z,10.87
2019-02-26T04:13:31.491Z,12.90
2019-02-26T04:16:02.218Z,10.10
2019-02-26T04:18:34.202Z,11.23
2019-02-26T04:21:05.684Z,10.27
2019-02-26T04:23:36.147Z,9.67
2019-02-26T04:26:20.875Z,11.90
2019-02-26T04:29:18.442Z,11.37
2019-02-26T04:32:15.116Z,10.13
2019-02-26T04:35:02.398Z,11.13
2019-02-26T04:38:25.889Z,9.77
2019-02-26T04:41:38.084Z,10.83
2019-02-26T04:45:05.890Z,9.40
2019-02-26T04:47:34.573Z,7.67
2019-02-26T04:50:09.001Z,9.93
2019-02-26T04:52:40.493Z,8.60
2019-02-26T04:55:29.761Z,11.07
2019-02-26T04:58:00.089Z,10.00
2019-02-26T05:00:32.200Z,10.70
2019-02-26T05:03:00.520Z,9.23
2019-02-26T05:05:31.949Z,8.77
2019-02-26T05:08:00.765Z,11.33
2019-02-26T05:10:31.942Z,10.90
2019-02-26T05:13:03.187Z,9.77
2019-02-26T05:15:33.280Z,12.13
2019-02-26T05:18:02.665Z,11.10
2019-02-26T05:20:34.069Z,11.83
2019-02-26T05:23:06.191Z,9.70
2019-02-26T05:25:35.107Z,10.80
2019-02-26T05:28:06.551Z,8.47
2019-02-26T05:30:37.791Z,10.13
2019-02-26T05:33:07.041Z,12.90
2019-02-26T05:35:37.807Z,12.23
2019-02-26T05:38:09.515Z,9.23
2019-02-26T05:40:40.403Z,9.50
2019-02-26T05:43:09.190Z,10.27
2019-02-26T05:45:38.458Z,10.70
2019-02-26T05:48:07.867Z,11.57
2019-02-26T05:50:38.441Z,9.97
2019-02-26T05:53:10.452Z,11.50
2019-02-26T05:55:41.643Z,11.40
2019-02-26T05:58:12.459Z,12.80
2019-02-26T06:00:41.132Z,11.20
2019-02-26T06:03:12.337Z,9.83
2019-02-26T06:05:45.750Z,11.77
2019-02-26T06:08:12.389Z,13.70
2019-02-26T06:10:41.637Z,15.27
2019-02-26T06:13:13.517Z,14.07
2019-02-26T06:15:41.823Z,20.70
2019-02-26T06:18:11.023Z,19.57
2019-02-26T06:20:40.187Z,18.27
2019-02-26T06:23:09.445Z,17.17
2019-02-26T06:25:38.680Z,20.30
2019-02-26T06:28:12.132Z,18.80
2019-02-26T06:30:38.952Z,17.33
2019-02-26T06:33:09.779Z,20.13
2019-02-26T06:35:40.691Z,17.67
2019-02-26T06:38:11.661Z,18.43
2019-02-26T06:40:42.331Z,18.83
2019-02-26T06:43:17.418Z,18.83
2019-02-26T06:45:47.779Z,12.57
2019-02-26T06:48:20.166Z,13.20
2019-02-26T06:50:48.113Z,17.43
2019-02-26T06:53:20.972Z,17.50
2019-02-26T06:55:48.355Z,15.43
2019-02-26T06:58:25.436Z,13.37
2019-02-26T07:00:55.585Z,13.90
2019-02-26T07:03:25.050Z,15.20
2019-02-26T07:05:54.401Z,14.33
2019-02-26T07:08:25.962Z,12.17
2019-02-26T07:10:54.695Z,13.37
2019-02-26T07:13:23.994Z,13.23
2019-02-26T07:15:53.300Z,12.23
2019-02-26T07:18:22.460Z,13.13
2019-02-26T07:20:54.587Z,14.20
2019-02-26T07:23:22.532Z,14.17
2019-02-26T07:25:51.711Z,12.20
2019-02-26T07:28:22.848Z,13.10
2019-02-26T07:30:51.932Z,13.27
2019-02-26T07:33:21.121Z,14.00
2019-02-26T07:35:52.218Z,12.10
2019-02-26T07:38:22.948Z,15.23
2019-02-26T07:40:52.080Z,14.13
2019-02-26T07:43:22.617Z,10.73
2019-02-26T07:45:51.842Z,9.77
2019-02-26T07:48:23.352Z,12.57
2019-02-26T07:50:52.013Z,13.00
2019-02-26T07:53:22.720Z,11.43
2019-02-26T07:55:52.182Z,9.50
2019-02-26T07:58:21.481Z,9.67
2019-02-26T08:00:52.263Z,12.97
2019-02-26T08:03:24.151Z,12.33
2019-02-26T08:05:52.636Z,8.97
2019-02-26T08:08:21.882Z,8.43
2019-02-26T08:10:52.969Z,9.23
2019-02-26T08:13:23.825Z,8.33
2019-02-26T08:15:54.977Z,9.73
2019-02-26T08:18:23.912Z,10.47
2019-02-26T08:20:56.866Z,8.63
2019-02-26T08:23:26.256Z,8.20
2019-02-26T08:25:57.281Z,13.17
2019-02-26T08:28:25.913Z,8.93
2019-02-26T08:30:57.114Z,7.90
2019-02-26T08:33:26.032Z,11.10
2019-02-26T08:35:56.109Z,10.87
2019-02-26T08:38:29.239Z,10.93
2019-02-26T08:40:56.323Z,8.87
2019-02-26T08:43:25.697Z,11.63
2019-02-26T08:45:54.869Z,8.47
2019-02-26T08:48:25.158Z,10.13
2019-02-26T08:50:55.875Z,11.50
2019-02-26T08:53:26.645Z,13.17
2019-02-26T08:55:58.704Z,12.63
2019-02-26T08:58:28.262Z,13.97
2019-02-26T09:00:57.625Z,10.63
2019-02-26T09:03:26.823Z,12.27
2019-02-26T09:05:58.448Z,14.50
2019-02-26T09:08:26.927Z,10.57
2019-02-26T09:10:56.129Z,11.83
2019-02-26T09:13:25.605Z,12.53
2019-02-26T09:15:55.636Z,9.03
2019-02-26T09:18:28.012Z,10.07
2019-02-26T09:20:56.609Z,7.97
2019-02-26T09:23:27.806Z,10.50
2019-02-26T09:25:59.293Z,9.23
2019-02-26T09:28:29.450Z,8.77
2019-02-26T09:31:01.345Z,7.87
2019-02-26T09:33:32.684Z,7.57
2019-02-26T09:36:00.599Z,8.83
2019-02-26T09:38:29.871Z,8.23
2019-02-26T09:40:59.047Z,8.30
2019-02-26T09:43:28.277Z,6.43
2019-02-26T09:45:57.536Z,8.03
2019-02-26T09:48:26.734Z,6.63
2019-02-26T09:50:55.995Z,8.83
2019-02-26T09:53:25.282Z,7.70
2019-02-26T09:55:54.495Z,9.43
2019-02-26T09:58:25.367Z,8.07
2019-02-26T10:00:54.612Z,6.67
2019-02-26T10:03:23.811Z,6.43
2019-02-26T10:05:55.150Z,7.93
2019-02-26T10:08:25.344Z,6.90
2019-02-26T10:10:56.933Z,7.00
2019-02-26T10:13:27.717Z,6.37
2019-02-26T10:15:58.785Z,6.67
2019-02-26T10:18:28.016Z,6.63
2019-02-26T10:20:58.503Z,6.50
2019-02-26T10:23:29.089Z,7.60
2019-02-26T10:26:00.324Z,6.30
2019-02-26T10:28:30.155Z,6.73
2019-02-26T10:31:04.137Z,7.03
2019-02-26T10:33:31.585Z,6.80
2019-02-26T10:36:02.930Z,6.07
2019-02-26T10:38:33.729Z,7.17
2019-02-26T10:41:05.039Z,5.63
2019-02-26T10:43:36.326Z,5.93
2019-02-26T10:46:17.674Z,6.50
2019-02-26T10:48:48.070Z,6.10
2019-02-26T10:51:26.204Z,5.87
2019-02-26T10:53:49.993Z,5.97
2019-02-26T10:56:20.193Z,5.80
2019-02-26T10:58:49.555Z,6.20
2019-02-26T11:01:22.798Z,5.03
2019-02-26T11:03:52.885Z,5.63
2019-02-26T11:06:23.248Z,5.93
2019-02-26T11:08:53.136Z,6.20
2019-02-26T11:11:24.800Z,5.70
2019-02-26T11:13:53.986Z,5.30
2019-02-26T11:16:25.343Z,6.20
2019-02-26T11:18:54.827Z,6.83
2019-02-26T11:21:24.270Z,6.73
2019-02-26T11:23:53.716Z,5.83
2019-02-26T11:26:23.282Z,5.83
2019-02-26T11:28:52.570Z,6.10
2019-02-26T11:31:25.324Z,6.00
2019-02-26T11:33:56.429Z,6.30
2019-02-26T11:36:25.180Z,5.87
2019-02-26T11:38:54.602Z,6.40
2019-02-26T11:41:25.918Z,6.27
2019-02-26T11:43:54.849Z,6.40
2019-02-26T11:46:25.304Z,6.10
2019-02-26T11:48:55.498Z,6.20
2019-02-26T11:51:25.830Z,6.60
2019-02-26T11:53:55.105Z,8.37
2019-02-26T11:56:25.706Z,6.97
2019-02-26T11:58:55.138Z,6.87
2019-02-26T12:01:24.437Z,9.97
2019-02-26T12:03:56.129Z,8.67
2019-02-26T12:06:26.712Z,6.70
2019-02-26T12:08:55.933Z,6.90
2019-02-26T12:11:25.130Z,6.70
2019-02-26T12:13:54.294Z,8.13
2019-02-26T12:16:24.593Z,6.90
2019-02-26T12:18:58.672Z,6.80
2019-02-26T12:21:32.251Z,6.80
2019-02-26T12:24:03.227Z,6.27
2019-02-26T12:26:32.771Z,6.40
2019-02-26T12:29:04.328Z,5.77
2019-02-26T12:31:34.633Z,7.03
2019-02-26T12:34:05.567Z,6.40
2019-02-26T12:36:35.536Z,6.30
2019-02-26T12:39:08.777Z,6.03
2019-02-26T12:41:41.192Z,7.13
2019-02-26T12:44:12.921Z,6.33
2019-02-26T12:46:44.958Z,5.60
2019-02-26T12:49:15.823Z,6.63
2019-02-26T12:51:47.203Z,6.90
2019-02-26T12:54:16.516Z,5.90
2019-02-26T12:56:45.698Z,6.17
2019-02-26T12:59:16.047Z,5.97
2019-02-26T13:01:46.343Z,5.83
2019-02-26T13:04:19.613Z,5.97
2019-02-26T13:06:51.807Z,5.67
2019-02-26T13:09:27.575Z,5.97
2019-02-26T13:12:02.342Z,7.60
2019-02-26T13:14:27.773Z,6.20
2019-02-26T13:17:00.012Z,6.80
2019-02-26T13:19:32.686Z,6.63
2019-02-26T13:22:05.149Z,5.97
2019-02-26T13:24:30.329Z,6.57
2019-02-26T13:27:01.743Z,5.90
2019-02-26T13:29:31.956Z,5.80
2019-02-26T13:32:02.331Z,6.23
2019-02-26T13:34:31.578Z,7.33
2019-02-26T13:37:00.863Z,6.20
2019-02-26T13:39:38.010Z,6.30
2019-02-26T13:42:05.550Z,6.50
2019-02-26T13:44:32.646Z,5.83
2019-02-26T13:47:01.853Z,5.20
2019-02-26T13:49:31.146Z,7.40
2019-02-26T13:52:00.317Z,6.60
2019-02-26T13:54:29.522Z,6.50
2019-02-26T13:56:58.704Z,7.93
2019-02-26T13:59:28.051Z,8.73
2019-02-26T14:01:57.374Z,7.40
2019-02-26T14:04:26.679Z,7.67
2019-02-26T14:06:55.940Z,7.70
2019-02-26T14:09:25.153Z,7.70
2019-02-26T14:11:54.489Z,7.93
2019-02-26T14:14:23.722Z,7.03
2019-02-26T14:16:52.983Z,8.10
2019-02-26T14:19:22.234Z,8.33
2019-02-26T14:21:51.495Z,7.20
2019-02-26T14:24:20.670Z,7.30
2019-02-26T14:26:50.150Z,7.37
2019-02-26T14:29:19.347Z,7.43
2019-02-26T14:31:48.521Z,7.57
2019-02-26T14:34:17.703Z,8.00
2019-02-26T14:36:46.877Z,8.80
2019-02-26T14:39:16.318Z,9.87
2019-02-26T14:41:45.490Z,7.80
2019-02-26T14:44:14.806Z,7.73
2019-02-26T14:46:43.978Z,8.20
2019-02-26T14:49:13.172Z,7.97
2019-02-26T14:51:42.477Z,9.37
2019-02-26T14:54:11.823Z,10.00
2019-02-26T14:56:40.990Z,10.30
2019-02-26T14:59:10.175Z,7.87
2019-02-26T15:01:39.543Z,7.73
2019-02-26T15:04:08.803Z,9.07
2019-02-26T15:06:38.166Z,8.57
2019-02-26T15:09:07.817Z,12.00
2019-02-26T15:11:37.102Z,8.57
2019-02-26T15:14:06.366Z,9.87
2019-02-26T15:16:35.558Z,10.27
2019-02-26T15:19:05.655Z,8.43
2019-02-26T15:21:35.485Z,7.73
2019-02-26T15:24:04.683Z,7.53
2019-02-26T15:26:33.877Z,8.10
2019-02-26T15:29:03.079Z,10.87
2019-02-26T15:31:32.281Z,10.23
2019-02-26T15:34:01.472Z,10.20
2019-02-26T15:36:30.659Z,9.63
2019-02-26T15:38:59.880Z,8.70
2019-02-26T15:41:29.077Z,10.33
2019-02-26T15:43:58.352Z,12.00
2019-02-26T15:46:28.572Z,12.23
2019-02-26T15:48:58.684Z,15.23
2019-02-26T15:51:27.981Z,15.70
2019-02-26T15:53:57.325Z,14.23
2019-02-26T15:56:29.561Z,14.80
2019-02-26T15:58:57.537Z,12.37
2019-02-26T16:01:26.738Z,13.17
2019-02-26T16:03:55.927Z,12.20
2019-02-26T16:06:25.172Z,12.53
2019-02-26T16:08:54.519Z,12.93
2019-02-26T16:11:23.801Z,13.57
2019-02-26T16:13:53.144Z,22.03
2019-02-26T16:16:22.409Z,18.73
2019-02-26T16:18:51.593Z,13.93
2019-02-26T16:21:20.885Z,50.97
2019-02-26T16:23:50.093Z,30.90
2019-02-26T16:26:19.402Z,13.40
2019-02-26T16:28:48.607Z,8.23
2019-02-26T16:31:17.824Z,6.13
2019-02-26T16:33:47.297Z,7.40
2019-02-26T16:36:16.868Z,10.03
2019-02-26T16:38:50.564Z,9.20
2019-02-26T16:41:17.078Z,6.60
2019-02-26T16:43:47.317Z,5.53
2019-02-26T16:46:16.729Z,5.80
2019-02-26T16:48:46.252Z,5.23
2019-02-26T16:51:16.677Z,6.47
2019-02-26T16:53:46.568Z,7.80
2019-02-26T16:56:15.936Z,6.97
2019-02-26T16:58:45.332Z,5.70
2019-02-26T17:01:14.568Z,5.73
2019-02-26T17:03:43.769Z,5.27
2019-02-26T17:06:13.072Z,6.40
2019-02-26T17:08:44.703Z,6.50
2019-02-26T17:11:13.950Z,5.27
2019-02-26T17:13:44.137Z,8.53
2019-02-26T17:16:13.574Z,8.10
2019-02-26T17:18:43.414Z,7.60
2019-02-26T17:21:12.806Z,8.63
2019-02-26T17:23:42.212Z,7.83
2019-02-26T17:26:11.659Z,22.83
2019-02-26T17:28:43.420Z,22.93
2019-02-26T17:31:12.552Z,18.60
2019-02-26T17:33:42.122Z,15.37
2019-02-26T17:36:13.063Z,15.43
2019-02-26T17:38:42.490Z,11.90
2019-02-26T17:41:12.190Z,14.87
2019-02-26T17:43:42.087Z,8.83
2019-02-26T17:46:11.510Z,14.03
2019-02-26T17:48:43.449Z,10.97
2019-02-26T17:51:12.858Z,13.70
2019-02-26T17:53:42.248Z,11.00
2019-02-26T17:56:11.631Z,11.80
2019-02-26T17:58:41.725Z,11.03
2019-02-26T18:01:12.132Z,9.00
2019-02-26T18:03:44.412Z,10.67
2019-02-26T18:06:13.169Z,17.23
2019-02-26T18:08:42.546Z,10.23
2019-02-26T18:11:11.900Z,11.50
2019-02-26T18:13:41.364Z,8.97
2019-02-26T18:16:10.810Z,11.23
2019-02-26T18:18:40.138Z,7.77
2019-02-26T18:21:09.401Z,8.50
2019-02-26T18:23:38.727Z,9.90
2019-02-26T18:26:08.060Z,8.70
2019-02-26T18:28:37.408Z,10.10
2019-02-26T18:31:06.973Z,11.93
2019-02-26T18:33:38.878Z,9.47
2019-02-26T18:36:11.605Z,17.40
2019-02-26T18:38:40.959Z,21.37
2019-02-26T18:41:11.104Z,18.97
2019-02-26T18:43:40.459Z,11.60
2019-02-26T18:46:10.157Z,10.90
2019-02-26T18:48:39.679Z,10.67
2019-02-26T18:51:09.088Z,13.30
2019-02-26T18:53:38.661Z,10.77
2019-02-26T18:56:08.073Z,10.10
2019-02-26T18:58:37.553Z,17.33
2019-02-26T19:01:07.267Z,17.40
2019-02-26T19:03:39.358Z,20.70
2019-02-26T19:06:08.209Z,15.57
2019-02-26T19:08:39.342Z,14.13
2019-02-26T19:11:08.734Z,9.27
2019-02-26T19:13:38.099Z,7.80
2019-02-26T19:16:08.556Z,7.03
2019-02-26T19:18:38.546Z,6.97
2019-02-26T19:21:08.020Z,5.90
2019-02-26T19:23:38.963Z,8.30
2019-02-26T19:26:08.309Z,6.00
2019-02-26T19:28:39.841Z,7.60
2019-02-26T19:31:09.823Z,6.43
2019-02-26T19:33:39.819Z,5.77
2019-02-26T19:36:10.614Z,8.33
2019-02-26T19:38:40.565Z,7.33
2019-02-26T19:41:15.014Z,7.17
2019-02-26T19:43:44.684Z,9.37
2019-02-26T19:46:17.625Z,7.13
2019-02-26T19:48:48.113Z,8.53
2019-02-26T19:51:22.854Z,12.23
2019-02-26T19:53:51.456Z,12.33
2019-02-26T19:56:23.712Z,10.57
2019-02-26T19:58:54.292Z,8.10
2019-02-26T20:01:25.805Z,7.23
2019-02-26T20:03:55.267Z,6.67
2019-02-26T20:06:27.711Z,9.30
2019-02-26T20:08:57.405Z,10.70
2019-02-26T20:11:30.159Z,9.20
2019-02-26T20:14:04.663Z,6.70
2019-02-26T20:16:32.432Z,8.50
2019-02-26T20:19:02.401Z,31.80
2019-02-26T20:21:32.891Z,17.10
2019-02-26T20:24:04.795Z,11.40
2019-02-26T20:26:34.452Z,17.30
2019-02-26T20:29:07.559Z,13.80
2019-02-26T20:31:35.388Z,14.93
2019-02-26T20:34:06.768Z,12.83
2019-02-26T20:36:36.882Z,12.60
2019-02-26T20:39:07.980Z,15.47
2019-02-26T20:41:37.904Z,13.50
2019-02-26T20:44:09.920Z,11.87
2019-02-26T20:46:38.964Z,11.03
2019-02-26T20:49:09.893Z,12.37
2019-02-26T20:51:40.165Z,10.53
2019-02-26T20:54:11.652Z,12.60
2019-02-26T20:56:41.180Z,9.73
2019-02-26T20:59:11.098Z,9.73
2019-02-26T21:01:40.545Z,10.10
2019-02-26T21:04:10.078Z,13.33
2019-02-26T21:06:40.386Z,10.90
2019-02-26T21:09:10.365Z,10.50
2019-02-26T21:11:39.846Z,14.27
2019-02-26T21:14:09.346Z,10.43
2019-02-26T21:16:39.778Z,11.53
2019-02-26T21:19:09.244Z,13.00
2019-02-26T21:21:39.834Z,11.90
2019-02-26T21:24:09.506Z,12.23
2019-02-26T21:26:39.190Z,11.03
2019-02-26T21:29:08.618Z,12.87
2019-02-26T21:31:38.072Z,13.33
2019-02-26T21:34:07.496Z,12.83
2019-02-26T21:36:36.902Z,12.67
2019-02-26T21:39:10.835Z,15.33
2019-02-26T21:41:39.148Z,13.37
2019-02-26T21:44:09.448Z,10.97
2019-02-26T21:46:38.890Z,12.10
2019-02-26T21:49:09.944Z,14.87
2019-02-26T21:51:39.673Z,8.67
2019-02-26T21:54:09.076Z,12.67
2019-02-26T21:56:38.402Z,17.07
2019-02-26T21:59:07.824Z,14.53
2019-02-26T22:01:37.122Z,13.93
2019-02-26T22:04:06.450Z,14.40
2019-02-26T22:06:35.709Z,17.57
2019-02-26T22:09:05.770Z,14.57
2019-02-26T22:11:35.069Z,19.77
2019-02-26T22:14:04.400Z,17.07
2019-02-26T22:16:33.621Z,14.63
2019-02-26T22:19:04.795Z,12.13
2019-02-26T22:21:33.822Z,13.93
2019-02-26T22:24:04.620Z,16.13
2019-02-26T22:26:34.000Z,15.03
2019-02-26T22:29:03.197Z,15.80
2019-02-26T22:31:32.462Z,13.87
2019-02-26T22:34:01.693Z,14.57
2019-02-26T22:36:33.333Z,15.13
2019-02-26T22:39:01.883Z,13.30
2019-02-26T22:41:32.761Z,13.97
2019-02-26T22:44:02.077Z,17.97
2019-02-26T22:46:33.679Z,11.80
2019-02-26T22:49:02.205Z,10.60
2019-02-26T22:51:31.438Z,10.00
2019-02-26T22:54:00.641Z,11.03
2019-02-26T22:56:29.905Z,11.10
2019-02-26T22:58:59.104Z,9.03
2019-02-26T23:01:53.905Z,8.87
2019-02-26T23:04:23.081Z,8.97
2019-02-26T23:06:52.289Z,8.30
2019-02-26T23:09:23.991Z,7.20
2019-02-26T23:11:53.261Z,8.47
2019-02-26T23:14:22.539Z,7.43
2019-02-26T23:16:52.566Z,6.93
2019-02-26T23:19:22.149Z,9.80
2019-02-26T23:21:51.589Z,8.00
2019-02-26T23:24:21.737Z,7.53
2019-02-26T23:26:50.989Z,8.67
2019-02-26T23:29:20.189Z,9.23
2019-02-26T23:31:50.147Z,7.43
2019-02-26T23:34:21.686Z,7.53
2019-02-26T23:36:50.442Z,7.63
2019-02-26T23:39:19.809Z,7.33
2019-02-26T23:41:48.972Z,9.80
2019-02-26T23:44:18.650Z,8.37
2019-02-26T23:46:47.977Z,7.80
2019-02-26T23:49:17.320Z,7.03
2019-02-26T23:51:46.587Z,8.63
2019-02-26T23:54:15.747Z,7.77
2019-02-26T23:56:44.939Z,7.73
2019-02-26T23:59:14.199Z,9.33
